.
WxDataArchive / Data Records for 2008-12-11
2008-12-10 December 2008 2008-12-12

Data Records for Thursday, 11 December 2008

Time	Temp	Chill	HIndex	Humid	Dewpt	 Wind 	HiWind	WindDir	Rain 	Barom 
-----	----	-----	------	-----	-----	------	------	-------	-----	----- 
00:00	23.0	23.0	23.0	81	18.1	1	3	90	0.00	30.152 
00:05	23.0	23.0	23.0	81	18.1	0	2	90	0.00	30.151 
00:10	23.2	23.2	23.2	81	18.3	0	1	90	0.00	30.147 
00:15	23.2	23.2	23.2	81	18.3	0	2	90	0.00	30.147 
00:20	23.2	23.2	23.2	81	18.3	0	2	90	0.00	30.149 
00:25	23.0	23.0	23.0	81	18.1	0	1	90	0.00	30.145 
00:30	23.0	23.0	23.0	81	18.1	0	1	90	0.00	30.144 
00:35	22.9	22.9	22.9	81	18.0	0	0	---	0.00	30.143 
00:40	22.9	22.9	22.9	81	18.0	0	1	90	0.00	30.144 
00:45	22.7	22.7	22.7	81	17.8	0	0	---	0.00	30.133 
00:50	22.4	22.4	22.4	81	17.5	0	0	---	0.00	30.130 
00:55	22.2	22.2	22.2	81	17.3	0	0	---	0.00	30.129 
01:00	21.9	21.9	21.9	82	17.3	0	0	---	0.00	30.123 
01:05	21.8	21.8	21.8	82	17.2	0	0	---	0.00	30.124 
01:10	21.4	21.4	21.4	82	16.8	0	0	---	0.00	30.121 
01:15	21.3	21.3	21.3	82	16.7	0	0	---	0.00	30.127 
01:20	21.0	21.0	21.0	82	16.4	0	0	---	0.00	30.122 
01:25	20.8	20.8	20.8	83	16.5	0	0	---	0.00	30.129 
01:30	20.6	20.6	20.6	84	16.5	0	0	---	0.00	30.142 
01:35	20.5	20.5	20.5	84	16.4	0	0	---	0.00	30.139 
01:40	20.5	20.5	20.5	84	16.4	0	0	---	0.00	30.129 
01:45	20.5	20.5	20.5	85	16.7	0	0	---	0.00	30.117 
01:50	20.5	20.5	20.5	85	16.7	0	0	---	0.00	30.113 
01:55	20.5	20.5	20.5	85	16.7	0	0	---	0.00	30.109 
02:00	20.5	20.5	20.5	85	16.7	0	0	---	0.00	30.108 
02:05	20.5	20.5	20.5	86	17.0	0	0	---	0.00	30.113 
02:10	20.5	20.5	20.5	86	17.0	0	0	---	0.00	30.099 
02:15	20.5	20.5	20.5	86	17.0	0	0	---	0.00	30.098 
02:20	20.5	20.5	20.5	87	17.3	0	0	---	0.00	30.094 
02:25	20.5	20.5	20.5	87	17.3	0	0	---	0.00	30.087 
02:30	20.6	20.6	20.6	87	17.4	0	0	---	0.00	30.083 
02:35	20.6	20.6	20.6	87	17.4	0	0	---	0.00	30.083 
02:40	20.6	20.6	20.6	87	17.4	0	0	---	0.00	30.086 
02:45	20.6	20.6	20.6	87	17.4	0	0	---	0.00	30.093 
02:50	20.5	20.5	20.5	87	17.3	0	0	---	0.00	30.097 
02:55	20.5	20.5	20.5	87	17.3	0	0	---	0.00	30.099 
03:00	20.3	20.3	20.3	87	17.1	0	0	---	0.00	30.100 
03:05	20.2	20.2	20.2	87	17.0	0	0	---	0.00	30.099 
03:10	20.0	20.0	20.0	87	16.8	0	0	---	0.00	30.099 
03:15	20.0	20.0	20.0	87	16.8	0	0	---	0.00	30.099 
03:20	20.0	20.0	20.0	88	17.0	0	0	---	0.00	30.096 
03:25	20.2	20.2	20.2	88	17.2	0	0	---	0.00	30.097 
03:30	20.2	20.2	20.2	88	17.2	0	0	---	0.00	30.087 
03:35	20.2	20.2	20.2	88	17.2	0	0	---	0.00	30.084 
03:40	20.2	20.2	20.2	88	17.2	0	0	---	0.00	30.084 
03:45	20.2	20.2	20.2	88	17.2	0	0	---	0.00	30.081 
03:50	20.5	20.5	20.5	89	17.8	0	1	90	0.00	30.083 
03:55	20.6	20.6	20.6	89	17.9	0	0	---	0.00	30.083 
04:00	20.8	20.8	20.8	89	18.1	0	0	---	0.00	30.080 
04:05	21.1	21.1	21.1	89	18.4	0	1	90	0.00	30.072 
04:10	21.6	21.6	21.6	90	19.1	0	2	90	0.00	30.073 
04:15	21.9	21.9	21.9	90	19.4	1	3	90	0.00	30.082 
04:20	22.2	22.2	22.2	90	19.7	0	2	90	0.00	30.081 
04:25	22.4	22.4	22.4	90	19.9	1	4	90	0.00	30.081 
04:30	22.5	22.5	22.5	90	20.0	0	1	90	0.00	30.075 
04:35	22.7	22.7	22.7	90	20.2	0	2	158	0.00	30.075 
04:40	22.9	22.9	22.9	91	20.7	0	2	135	0.00	30.070 
04:45	23.0	23.0	23.0	91	20.8	0	2	90	0.00	30.078 
04:50	23.0	23.0	23.0	91	20.8	1	2	112	0.00	30.076 
04:55	23.2	23.2	23.2	91	21.0	1	3	112	0.00	30.077 
05:00	23.3	23.3	23.3	91	21.1	0	1	112	0.00	30.081 
05:05	23.5	23.5	23.5	91	21.3	0	1	112	0.00	30.080 
05:10	23.5	23.5	23.5	91	21.3	0	2	112	0.00	30.076 
05:15	23.6	23.6	23.6	91	21.4	0	2	112	0.00	30.073 
05:20	23.6	23.6	23.6	91	21.4	0	1	112	0.00	30.067 
05:25	23.6	23.6	23.6	91	21.4	0	1	112	0.00	30.067 
05:30	23.8	23.8	23.8	91	21.6	0	1	112	0.00	30.066 
05:35	23.8	23.8	23.8	91	21.6	0	3	135	0.00	30.058 
05:40	23.8	23.8	23.8	91	21.6	0	2	158	0.00	30.055 
05:45	23.8	23.8	23.8	90	21.3	0	1	158	0.00	30.052 
05:50	23.6	23.6	23.6	90	21.1	0	1	158	0.00	30.051 
05:55	23.6	23.6	23.6	90	21.1	0	1	158	0.00	30.062 
06:00	23.8	23.8	23.8	90	21.3	0	1	158	0.00	30.055 
06:05	23.8	23.8	23.8	90	21.3	0	2	158	0.00	30.056 
06:10	23.8	23.8	23.8	90	21.3	0	2	90	0.00	30.051 
06:15	23.9	23.9	23.9	90	21.4	0	1	90	0.00	30.055 
06:20	23.9	23.9	23.9	90	21.4	0	1	90	0.00	30.063 
06:25	23.9	23.9	23.9	90	21.4	0	1	90	0.00	30.062 
06:30	23.9	23.9	23.9	90	21.4	0	2	90	0.00	30.058 
06:35	23.8	23.8	23.8	90	21.3	0	1	90	0.00	30.057 
06:40	23.6	23.6	23.6	89	20.8	0	0	---	0.00	30.056 
06:45	23.6	23.6	23.6	89	20.8	0	0	---	0.00	30.054 
06:50	23.5	23.5	23.5	89	20.7	0	1	90	0.00	30.055 
06:55	23.5	23.5	23.5	89	20.7	0	0	---	0.00	30.055 
07:00	23.3	23.3	23.3	89	20.5	0	0	---	0.00	30.051 
07:05	23.3	23.3	23.3	89	20.5	0	0	---	0.00	30.054 
07:10	23.2	23.2	23.2	89	20.4	0	0	---	0.00	30.055 
07:15	23.2	23.2	23.2	89	20.4	0	0	---	0.00	30.057 
07:20	23.2	23.2	23.2	90	20.7	0	1	90	0.00	30.056 
07:25	23.2	23.2	23.2	90	20.7	0	1	90	0.00	30.059 
07:30	23.2	23.2	23.2	90	20.7	0	0	---	0.00	30.057 
07:35	23.2	23.2	23.2	90	20.7	0	1	90	0.00	30.057 
07:40	23.2	23.2	23.2	90	20.7	0	2	90	0.00	30.057 
07:45	23.2	23.2	23.2	90	20.7	0	1	90	0.00	30.053 
07:50	23.0	23.0	23.0	90	20.5	0	1	90	0.00	30.052 
07:55	23.0	23.0	23.0	90	20.5	0	1	90	0.00	30.053 
08:00	23.0	23.0	23.0	90	20.5	0	1	90	0.00	30.055 
08:05	22.9	22.9	22.9	90	20.4	0	0	---	0.00	30.065 
08:10	23.0	23.0	23.0	90	20.5	0	1	90	0.00	30.062 
08:15	23.0	23.0	23.0	90	20.5	0	1	90	0.00	30.065 
08:20	23.0	23.0	23.0	90	20.5	0	1	90	0.00	30.067 
08:25	23.2	23.2	23.2	90	20.7	0	1	90	0.00	30.070 
08:30	23.2	23.2	23.2	90	20.7	0	0	---	0.00	30.071 
08:35	23.2	23.2	23.2	90	20.7	0	1	90	0.00	30.070 
08:40	23.3	23.3	23.3	90	20.8	0	0	---	0.00	30.068 
08:45	23.3	23.3	23.3	90	20.8	0	1	90	0.00	30.060 
08:50	23.3	23.3	23.3	90	20.8	0	1	90	0.00	30.062 
08:55	23.5	23.5	23.5	90	21.0	0	1	90	0.00	30.060 
09:00	23.5	23.5	23.5	90	21.0	0	1	90	0.00	30.060 
09:05	23.5	23.5	23.5	90	21.0	0	1	90	0.00	30.067 
09:10	23.5	23.5	23.5	90	21.0	0	1	90	0.00	30.079 
09:15	23.6	23.6	23.6	90	21.1	0	2	90	0.00	30.083 
09:20	23.6	23.6	23.6	90	21.1	0	1	90	0.00	30.073 
09:25	23.8	23.8	23.8	90	21.3	1	2	90	0.00	30.073 
09:30	23.8	23.8	23.8	90	21.3	0	2	158	0.00	30.075 
09:35	23.8	23.8	23.8	90	21.3	0	3	112	0.00	30.078 
09:40	23.9	23.9	23.9	90	21.4	0	2	112	0.00	30.077 
09:45	24.1	24.1	24.1	90	21.6	0	2	112	0.00	30.075 
09:50	24.2	24.2	24.2	90	21.7	0	1	112	0.00	30.080 
09:55	24.4	24.4	24.4	90	21.9	0	2	112	0.00	30.077 
10:00	24.4	24.4	24.4	89	21.6	1	4	112	0.00	30.083 
10:05	24.4	24.4	24.4	89	21.6	0	1	112	0.00	30.082 
10:10	24.4	24.4	24.4	89	21.6	1	3	112	0.00	30.066 
10:15	24.5	24.5	24.5	89	21.7	0	2	112	0.00	30.054 
10:20	24.7	24.7	24.7	89	21.9	0	1	112	0.00	30.043 
10:25	24.7	24.7	24.7	89	21.9	0	1	112	0.00	30.043 
10:30	24.8	24.8	24.8	89	22.0	0	1	112	0.00	30.046 
10:35	25.1	25.1	25.1	89	22.3	0	1	112	0.00	30.052 
10:40	25.4	25.4	25.4	89	22.6	0	1	112	0.00	30.051 
10:45	25.6	25.6	25.6	88	22.5	0	1	0	0.00	30.048 
10:50	25.6	25.6	25.6	88	22.5	0	2	0	0.00	30.047 
10:55	25.7	25.7	25.7	87	22.4	0	1	248	0.00	30.048 
11:00	26.0	26.0	26.0	87	22.7	0	3	112	0.00	30.051 
11:05	26.1	26.1	26.1	87	22.8	0	2	112	0.00	30.053 
11:10	26.4	26.4	26.4	87	23.1	0	2	112	0.00	30.057 
11:15	26.7	26.7	26.7	86	23.1	0	1	112	0.00	30.055 
11:20	26.9	26.9	26.9	86	23.3	0	3	270	0.00	30.058 
11:25	27.0	27.0	27.0	85	23.1	1	3	270	0.00	30.053 
11:30	27.2	27.2	27.2	85	23.3	0	3	22	0.00	30.049 
11:35	27.5	27.5	27.5	85	23.6	0	1	22	0.00	30.047 
11:40	27.6	27.6	27.6	84	23.4	0	1	22	0.00	30.037 
11:45	27.9	27.9	27.9	84	23.7	0	3	248	0.00	30.034 
11:50	28.2	28.2	28.2	84	24.0	0	1	248	0.00	30.030 
11:55	28.5	28.5	28.5	82	23.7	0	3	112	0.00	30.024 
12:00	28.7	28.7	28.7	81	23.6	0	1	112	0.00	30.017 
12:05	28.8	28.8	28.8	81	23.7	0	2	112	0.00	30.017 
12:10	29.0	29.0	29.0	81	23.9	0	1	112	0.00	30.003 
12:15	29.3	29.3	29.3	81	24.2	0	1	112	0.00	29.989 
12:20	29.4	29.4	29.4	79	23.7	0	1	112	0.00	29.983 
12:25	29.4	29.4	29.4	79	23.7	0	2	112	0.00	29.972 
12:30	29.4	29.4	29.4	78	23.4	0	2	90	0.00	29.966 
12:35	29.4	29.4	29.4	78	23.4	0	2	112	0.00	29.956 
12:40	29.7	29.7	29.7	78	23.7	0	3	248	0.00	29.955 
12:45	30.0	30.0	30.0	78	24.0	0	1	248	0.00	29.954 
12:50	30.1	30.1	30.1	76	23.5	1	3	248	0.00	29.952 
12:55	30.3	30.3	30.3	75	23.3	0	2	338	0.00	29.945 
13:00	30.4	30.4	30.4	74	23.1	0	2	338	0.00	29.947 
13:05	30.7	30.7	30.7	74	23.4	0	1	338	0.00	29.947 
13:10	31.0	31.0	31.0	74	23.7	0	1	248	0.00	29.941 
13:15	31.2	31.2	31.2	73	23.6	0	1	248	0.00	29.941 
13:20	31.2	31.2	31.2	71	22.9	0	1	248	0.00	29.938 
13:25	31.5	31.5	31.5	72	23.5	0	2	248	0.00	29.931 
13:30	31.6	31.6	31.6	71	23.3	0	1	248	0.00	29.933 
13:35	31.8	31.8	31.8	71	23.5	0	1	248	0.00	29.930 
13:40	31.8	31.8	31.8	70	23.2	0	1	248	0.00	29.925 
13:45	31.8	31.8	31.8	69	22.8	0	1	248	0.00	29.923 
13:50	31.9	31.9	31.9	68	22.6	0	1	248	0.00	29.921 
13:55	32.1	32.1	32.1	68	22.7	0	1	248	0.00	29.918 
14:00	32.2	32.2	32.2	69	23.2	0	1	248	0.00	29.918 
14:05	32.2	32.2	32.2	69	23.2	0	1	248	0.00	29.917 
14:10	32.4	32.4	32.4	69	23.4	0	2	248	0.00	29.909 
14:15	32.5	32.5	32.5	68	23.1	0	2	248	0.00	29.909 
14:20	32.5	32.5	32.5	68	23.1	0	1	248	0.00	29.908 
14:25	32.7	32.7	32.7	69	23.7	0	2	248	0.00	29.906 
14:30	32.7	32.7	32.7	68	23.3	0	1	248	0.00	29.908 
14:35	32.7	32.7	32.7	67	23.0	0	1	248	0.00	29.908 
14:40	32.8	32.8	32.8	67	23.1	0	2	248	0.00	29.906 
14:45	32.7	32.7	32.7	65	22.3	1	4	315	0.00	29.903 
14:50	32.7	32.7	32.7	66	22.6	0	1	248	0.00	29.905 
14:55	32.7	32.7	32.7	65	22.3	0	1	248	0.00	29.903 
15:00	32.7	32.7	32.7	66	22.6	0	1	315	0.00	29.897 
15:05	32.7	32.7	32.7	66	22.6	0	2	315	0.00	29.902 
15:10	32.7	32.7	32.7	65	22.3	1	5	248	0.00	29.901 
15:15	32.7	32.7	32.7	65	22.3	1	4	248	0.00	29.904 
15:20	32.7	32.7	32.7	65	22.3	0	2	248	0.00	29.906 
15:25	32.7	32.7	32.7	65	22.3	0	1	248	0.00	29.906 
15:30	32.5	32.5	32.5	64	21.7	0	1	248	0.00	29.908 
15:35	32.5	32.5	32.5	65	22.1	0	2	248	0.00	29.906 
15:40	32.4	32.4	32.4	66	22.3	0	1	248	0.00	29.908 
15:45	32.2	32.2	32.2	67	22.5	0	1	248	0.00	29.907 
15:50	32.1	32.1	32.1	67	22.4	0	3	248	0.00	29.907 
15:55	32.1	32.1	32.1	68	22.7	0	1	248	0.00	29.907 
16:00	31.9	31.9	31.9	69	22.9	0	1	248	0.00	29.906 
16:05	31.8	31.8	31.8	68	22.5	0	2	315	0.00	29.901 
16:10	31.6	31.6	31.6	69	22.6	0	1	315	0.00	29.898 
16:15	31.5	31.5	31.5	69	22.5	0	2	315	0.00	29.900 
16:20	31.3	31.3	31.3	70	22.7	0	1	315	0.00	29.903 
16:25	31.2	31.2	31.2	70	22.6	0	2	315	0.00	29.903 
16:30	31.2	31.2	31.2	71	22.9	0	3	0	0.00	29.897 
16:35	31.0	31.0	31.0	71	22.7	0	2	0	0.00	29.891 
16:40	30.9	30.9	30.9	71	22.6	1	4	338	0.00	29.890 
16:45	30.9	30.9	30.9	71	22.6	0	1	338	0.00	29.886 
16:50	30.7	30.7	30.7	72	22.8	0	2	338	0.00	29.883 
16:55	30.7	30.7	30.7	72	22.8	0	1	338	0.00	29.878 
17:00	30.6	30.6	30.6	73	23.0	0	2	338	0.00	29.876 
17:05	30.4	30.4	30.4	73	22.8	0	2	338	0.00	29.878 
17:10	30.3	30.3	30.3	73	22.7	0	2	338	0.00	29.878 
17:15	30.1	30.1	30.1	73	22.5	0	2	338	0.00	29.880 
17:20	30.0	30.0	30.0	74	22.7	0	0	---	0.00	29.873 
17:25	29.8	29.8	29.8	74	22.5	0	1	338	0.00	29.870 
17:30	29.7	29.7	29.7	75	22.8	0	1	338	0.00	29.871 
17:35	29.5	29.5	29.5	75	22.6	0	1	338	0.00	29.874 
17:40	29.4	29.4	29.4	75	22.5	0	2	338	0.00	29.872 
17:45	29.3	29.3	29.3	76	22.7	0	1	338	0.00	29.875 
17:50	29.3	29.3	29.3	76	22.7	0	0	---	0.00	29.877 
17:55	29.1	29.1	29.1	76	22.5	0	1	338	0.00	29.877 
18:00	29.0	29.0	29.0	77	22.7	0	0	---	0.00	29.878 
18:05	28.8	28.8	28.8	77	22.5	0	1	338	0.00	29.880 
18:10	28.5	28.5	28.5	78	22.5	0	0	---	0.00	29.881 
18:15	28.4	28.4	28.4	78	22.4	0	0	---	0.00	29.882 
18:20	28.2	28.2	28.2	79	22.5	0	1	338	0.00	29.881 
18:25	28.1	28.1	28.1	79	22.4	0	0	---	0.00	29.879 
18:30	27.9	27.9	27.9	80	22.5	0	1	338	0.00	29.879 
18:35	27.8	27.8	27.8	80	22.4	0	1	338	0.00	29.878 
18:40	27.8	27.8	27.8	81	22.7	0	2	338	0.00	29.878 
18:45	27.6	27.6	27.6	81	22.5	0	3	270	0.00	29.874 
18:50	27.6	27.6	27.6	81	22.5	0	1	270	0.00	29.872 
18:55	27.5	27.5	27.5	82	22.7	0	1	270	0.00	29.875 
19:00	27.5	27.5	27.5	82	22.7	0	1	270	0.00	29.871 
19:05	27.3	27.3	27.3	82	22.5	0	0	---	0.00	29.873 
19:10	27.2	27.2	27.2	83	22.7	0	1	270	0.00	29.870 
19:15	27.2	27.2	27.2	83	22.7	0	1	270	0.00	29.871 
19:20	27.2	27.2	27.2	83	22.7	0	1	270	0.00	29.864 
19:25	27.2	27.2	27.2	83	22.7	0	1	270	0.00	29.862 
19:30	27.2	27.2	27.2	84	23.0	0	2	270	0.00	29.860 
19:35	27.2	27.2	27.2	84	23.0	0	2	270	0.00	29.859 
19:40	27.2	27.2	27.2	84	23.0	0	3	270	0.00	29.852 
19:45	27.2	27.2	27.2	84	23.0	0	3	292	0.00	29.849 
19:50	27.3	27.3	27.3	84	23.1	1	3	315	0.00	29.849 
19:55	27.5	27.5	27.5	84	23.3	1	2	315	0.00	29.850 
20:00	27.6	27.6	27.6	84	23.4	1	4	292	0.00	29.850 
20:05	27.6	27.6	27.6	84	23.4	1	3	338	0.00	29.850 
20:10	27.5	27.5	27.5	84	23.3	0	2	270	0.00	29.854 
20:15	27.5	27.5	27.5	84	23.3	0	2	292	0.00	29.857 
20:20	27.3	27.3	27.3	84	23.1	0	1	292	0.00	29.856 
20:25	27.2	27.2	27.2	84	23.0	0	2	292	0.00	29.849 
20:30	27.2	27.2	27.2	84	23.0	1	3	292	0.00	29.848 
20:35	27.0	27.0	27.0	84	22.8	0	2	315	0.00	29.848 
20:40	27.0	27.0	27.0	84	22.8	1	3	270	0.00	29.852 
20:45	27.0	27.0	27.0	84	22.8	1	3	315	0.00	29.856 
20:50	27.0	27.0	27.0	84	22.8	1	3	315	0.00	29.855 
20:55	27.2	27.2	27.2	84	23.0	1	5	315	0.00	29.859 
21:00	27.3	27.3	27.3	84	23.1	1	3	315	0.00	29.861 
21:05	27.3	27.3	27.3	84	23.1	1	4	292	0.00	29.861 
21:10	27.3	27.3	27.3	84	23.1	1	3	292	0.00	29.861 
21:15	27.5	27.5	27.5	83	23.0	1	3	292	0.00	29.857 
21:20	27.5	27.5	27.5	83	23.0	2	7	292	0.00	29.857 
21:25	27.6	27.6	27.6	83	23.1	2	5	292	0.00	29.855 
21:30	27.8	27.8	27.8	83	23.3	2	7	292	0.00	29.855 
21:35	27.8	27.8	27.8	82	23.0	2	4	315	0.00	29.855 
21:40	27.9	27.9	27.9	82	23.1	3	6	270	0.00	29.856 
21:45	27.9	27.9	27.9	81	22.8	2	7	315	0.00	29.857 
21:50	27.9	27.9	27.9	81	22.8	2	6	292	0.00	29.859 
21:55	27.9	27.9	27.9	81	22.8	2	6	270	0.00	29.860 
22:00	27.9	27.9	27.9	81	22.8	1	5	338	0.00	29.861 
22:05	27.9	27.9	27.9	81	22.8	1	4	270	0.00	29.859 
22:10	27.8	27.8	27.8	81	22.7	1	3	270	0.00	29.859 
22:15	27.8	27.8	27.8	81	22.7	1	4	270	0.00	29.860 
22:20	27.8	27.8	27.8	81	22.7	0	4	338	0.00	29.860 
22:25	27.8	27.8	27.8	81	22.7	1	3	0	0.00	29.861 
22:30	27.8	27.8	27.8	81	22.7	0	2	315	0.00	29.862 
22:35	27.6	27.6	27.6	81	22.5	0	1	338	0.00	29.862 
22:40	27.6	27.6	27.6	81	22.5	1	5	315	0.00	29.865 
22:45	27.8	27.8	27.8	81	22.7	1	3	292	0.00	29.869 
22:50	27.8	27.8	27.8	80	22.4	0	2	292	0.00	29.870 
22:55	27.6	27.6	27.6	80	22.3	0	2	270	0.00	29.870 
23:00	27.5	27.5	27.5	80	22.2	0	0	---	0.00	29.873 
23:05	27.5	27.5	27.5	81	22.4	0	2	270	0.00	29.872 
23:10	27.6	27.6	27.6	80	22.3	0	3	270	0.00	29.873 
23:15	27.5	27.5	27.5	80	22.2	0	1	270	0.00	29.873 
23:20	27.5	27.5	27.5	80	22.2	0	2	270	0.00	29.874 
23:25	27.3	27.3	27.3	80	22.0	0	1	270	0.00	29.874 
23:30	27.5	27.5	27.5	80	22.2	1	6	0	0.00	29.873 
23:35	27.6	27.6	27.6	81	22.5	1	9	248	0.00	29.873 
23:40	27.8	27.8	27.8	80	22.4	1	3	338	0.00	29.874 
23:45	27.9	27.9	27.9	81	22.8	1	5	292	0.00	29.873 
23:50	27.9	27.9	27.9	80	22.5	1	5	270	0.00	29.873 
23:55	27.9	27.9	27.9	80	22.5	1	5	292	0.00	29.872 

CoCoRaHS
IN-AL-39
A2 Web Hosting
Creative Commons License
GoDaddy
search engine by freefind advanced

loaded 2018-11-17 12:25:33 • last modified 2010-11-18 10:43:29
Privacy PolicyDisclaimer
• wx.awcolley.com is powered by PmWiki v.2002016 •
• all content (unless otherwise noted) © 2018 A W Colley